createdAt,value
2023-04-15T00:01:59.961Z,96.02
2023-04-15T00:07:02.976Z,97.21
2023-04-15T00:12:05.520Z,96.62
2023-04-15T00:17:07.379Z,96.38
2023-04-15T00:22:09.254Z,95.76
2023-04-15T00:27:11.418Z,95.70
2023-04-15T00:32:13.391Z,95.50
2023-04-15T00:37:15.740Z,96.31
2023-04-15T00:42:18.319Z,96.04
2023-04-15T00:47:21.118Z,96.04
2023-04-15T00:52:22.699Z,95.41
2023-04-15T00:57:24.456Z,95.62
2023-04-15T01:02:26.257Z,95.28
2023-04-15T01:07:27.965Z,95.61
2023-04-15T01:12:29.866Z,95.76
2023-04-15T01:17:31.535Z,96.01
2023-04-15T01:22:33.465Z,95.86
2023-04-15T01:27:36.451Z,95.97
2023-04-15T01:32:38.306Z,95.81
2023-04-15T01:37:40.042Z,96.33
2023-04-15T01:42:41.702Z,97.07
2023-04-15T01:47:43.784Z,95.90
2023-04-15T01:52:45.366Z,96.18
2023-04-15T01:57:47.295Z,95.96
2023-04-15T02:02:49.536Z,96.34
2023-04-15T02:07:51.924Z,95.88
2023-04-15T02:12:54.227Z,96.70
2023-04-15T02:17:56.944Z,96.12
2023-04-15T02:22:58.647Z,96.70
2023-04-15T02:28:00.274Z,96.86
2023-04-15T02:33:01.997Z,95.91
2023-04-15T02:38:03.797Z,96.36
2023-04-15T02:43:07.074Z,96.39
2023-04-15T02:48:09.629Z,96.36
2023-04-15T02:53:11.688Z,96.65
2023-04-15T02:58:13.645Z,96.69
2023-04-15T03:03:15.484Z,97.32
2023-04-15T03:08:17.432Z,96.70
2023-04-15T03:13:19.632Z,96.79
2023-04-15T03:18:22.084Z,96.21
2023-04-15T03:23:23.674Z,96.79
2023-04-15T03:28:25.379Z,97.08
2023-04-15T03:33:27.082Z,96.35
2023-04-15T03:38:29.923Z,97.34
2023-04-15T03:43:31.482Z,96.64
2023-04-15T03:48:33.031Z,96.27
2023-04-15T03:53:34.643Z,96.95
2023-04-15T03:58:36.648Z,96.69
2023-04-15T04:03:38.585Z,96.50
2023-04-15T04:08:40.315Z,96.92
2023-04-15T04:13:41.870Z,98.20
2023-04-15T04:18:43.444Z,97.21
2023-04-15T04:23:45.028Z,97.81
2023-04-15T04:28:46.620Z,97.75
2023-04-15T04:33:48.148Z,98.05
2023-04-15T04:38:49.702Z,98.01
2023-04-15T04:43:51.360Z,98.01
2023-04-15T04:48:52.900Z,97.53
2023-04-15T04:53:54.510Z,98.15
2023-04-15T04:58:56.457Z,98.54
2023-04-15T05:03:58.066Z,99.58
2023-04-15T05:08:59.973Z,99.37
2023-04-15T05:14:02.269Z,99.04
2023-04-15T05:19:03.940Z,98.60
2023-04-15T05:24:06.337Z,99.63
2023-04-15T05:29:07.941Z,100.00
2023-04-15T05:34:10.256Z,99.37
2023-04-15T05:39:11.950Z,99.76
2023-04-15T05:44:13.757Z,99.13
2023-04-15T05:49:15.577Z,99.22
2023-04-15T05:54:18.674Z,100.00
2023-04-15T05:59:21.853Z,99.90
2023-04-15T06:04:24.165Z,99.29
2023-04-15T06:09:25.869Z,98.85
2023-04-15T06:14:27.710Z,97.69
2023-04-15T06:19:29.496Z,97.75
2023-04-15T06:24:31.639Z,98.42
2023-04-15T06:29:33.192Z,98.34
2023-04-15T06:34:34.815Z,99.49
2023-04-15T06:39:36.468Z,98.49
2023-04-15T06:44:38.150Z,97.31
2023-04-15T06:49:40.461Z,96.98
2023-04-15T06:54:42.774Z,97.54
2023-04-15T06:59:44.413Z,97.13
2023-04-15T07:04:46.526Z,98.21
2023-04-15T07:09:48.181Z,96.75
2023-04-15T07:14:49.748Z,96.75
2023-04-15T07:19:51.440Z,96.30
2023-04-15T07:24:53.014Z,95.80
2023-04-15T07:29:54.813Z,95.12
2023-04-15T07:34:56.814Z,95.31
2023-04-15T07:39:58.353Z,94.83
2023-04-15T07:44:59.987Z,95.59
2023-04-15T07:50:02.248Z,94.01
2023-04-15T07:55:04.700Z,93.06
2023-04-15T08:00:07.661Z,93.31
2023-04-15T08:05:15.902Z,92.84
2023-04-15T08:10:17.751Z,93.81
2023-04-15T08:15:19.351Z,92.13
2023-04-15T08:20:20.987Z,90.41
2023-04-15T08:25:22.680Z,89.86
2023-04-15T08:30:24.532Z,89.98
2023-04-15T08:35:26.441Z,90.00
2023-04-15T08:40:34.892Z,89.40
2023-04-15T08:45:38.652Z,88.17
2023-04-15T08:50:40.645Z,88.58
2023-04-15T08:55:47.361Z,89.07
2023-04-15T09:00:49.232Z,90.23
2023-04-15T09:05:53.217Z,90.98
2023-04-15T09:10:55.154Z,90.25
2023-04-15T09:15:58.442Z,89.61
2023-04-15T09:21:08.751Z,87.94
2023-04-15T09:26:10.598Z,87.08
2023-04-15T09:31:12.261Z,85.72
2023-04-15T09:36:13.856Z,84.53
2023-04-15T09:41:21.217Z,84.63
2023-04-15T09:46:41.514Z,84.85
2023-04-15T09:51:48.625Z,84.68
2023-04-15T09:57:05.469Z,84.93
2023-04-15T10:02:10.293Z,83.50
2023-04-15T10:07:12.861Z,83.75
2023-04-15T10:12:17.042Z,83.41
2023-04-15T10:17:22.330Z,83.55
2023-04-15T10:22:24.709Z,83.18
2023-04-15T10:27:27.772Z,82.49
2023-04-15T10:32:29.839Z,81.72
2023-04-15T10:37:36.770Z,81.37
2023-04-15T10:42:38.369Z,81.37
2023-04-15T10:47:39.971Z,81.78
2023-04-15T10:52:42.236Z,81.44
2023-04-15T10:57:44.275Z,81.01
2023-04-15T11:02:47.292Z,80.53
2023-04-15T11:07:51.756Z,79.88
2023-04-15T11:12:57.392Z,79.69
2023-04-15T11:18:40.534Z,79.78
2023-04-15T11:23:49.262Z,79.52
2023-04-15T11:28:50.809Z,79.30
2023-04-15T11:33:56.365Z,78.95
2023-04-15T11:38:59.236Z,78.34
2023-04-15T11:44:01.397Z,78.05
2023-04-15T11:49:04.828Z,77.34
2023-04-15T11:54:06.624Z,77.35
2023-04-15T11:59:08.317Z,77.18
2023-04-15T12:04:20.898Z,76.69
2023-04-15T12:09:25.230Z,76.24
2023-04-15T12:14:33.475Z,76.64
2023-04-15T12:19:37.920Z,76.54
2023-04-15T12:24:40.308Z,76.20
2023-04-15T12:29:45.427Z,75.86
2023-04-15T12:34:51.638Z,75.26
2023-04-15T12:39:54.024Z,75.38
2023-04-15T12:44:55.630Z,74.94
2023-04-15T12:49:57.212Z,75.15
2023-04-15T12:54:58.844Z,74.89
2023-04-15T13:00:00.680Z,73.71
2023-04-15T13:05:02.321Z,73.98
2023-04-15T13:10:04.146Z,73.46
2023-04-15T13:15:06.213Z,74.16
2023-04-15T13:20:08.844Z,72.62
2023-04-15T13:25:10.484Z,72.44
2023-04-15T13:30:12.408Z,72.08
2023-04-15T13:35:14.707Z,72.30
2023-04-15T13:40:16.550Z,71.98
2023-04-15T13:45:18.207Z,71.71
2023-04-15T13:50:20.032Z,72.06
2023-04-15T13:55:23.734Z,72.56
2023-04-15T14:00:27.139Z,73.67
2023-04-15T14:05:28.741Z,72.14
2023-04-15T14:10:30.299Z,71.03
2023-04-15T14:15:32.139Z,71.92
2023-04-15T14:20:33.751Z,71.90
2023-04-15T14:25:35.431Z,72.42
2023-04-15T14:30:36.993Z,72.32
2023-04-15T14:35:39.080Z,71.78
2023-04-15T14:40:41.371Z,71.43
2023-04-15T14:45:44.643Z,70.43
2023-04-15T14:50:47.141Z,70.78
2023-04-15T14:55:48.722Z,70.68
2023-04-15T15:00:50.348Z,71.41
2023-04-15T15:05:52.164Z,70.95
2023-04-15T15:10:53.831Z,71.42
2023-04-15T15:15:55.443Z,71.03
2023-04-15T15:20:57.017Z,69.72
2023-04-15T15:25:59.006Z,70.00
2023-04-15T15:31:00.758Z,69.63
2023-04-15T15:36:03.562Z,69.10
2023-04-15T15:41:06.355Z,69.79
2023-04-15T15:46:07.982Z,70.60
2023-04-15T15:51:09.658Z,70.17
2023-04-15T15:56:11.317Z,69.49
2023-04-15T16:01:12.959Z,69.82
2023-04-15T16:06:14.557Z,69.78
2023-04-15T16:11:16.181Z,70.22
2023-04-15T16:16:17.803Z,71.66
2023-04-15T16:21:20.251Z,70.83
2023-04-15T16:26:21.877Z,70.66
2023-04-15T16:31:23.562Z,70.97
2023-04-15T16:36:25.940Z,70.27
2023-04-15T16:41:28.338Z,70.85
2023-04-15T16:46:30.004Z,71.81
2023-04-15T16:51:32.120Z,72.40
2023-04-15T16:56:33.678Z,72.14
2023-04-15T17:01:35.465Z,72.59
2023-04-15T17:06:37.041Z,73.14
2023-04-15T17:11:40.538Z,73.56
2023-04-15T17:16:43.136Z,73.78
2023-04-15T17:21:44.714Z,73.68
2023-04-15T17:26:47.078Z,73.85
2023-04-15T17:31:48.680Z,73.34
2023-04-15T17:36:51.409Z,73.48
2023-04-15T17:41:52.979Z,74.29
2023-04-15T17:46:54.706Z,74.77
2023-04-15T17:51:56.419Z,75.84
2023-04-15T17:56:59.357Z,75.49
2023-04-15T18:02:01.033Z,76.07
2023-04-15T18:07:02.756Z,76.63
2023-04-15T18:12:06.319Z,77.14
2023-04-15T18:17:07.944Z,77.36
2023-04-15T18:22:09.560Z,77.65
2023-04-15T18:27:11.184Z,78.32
2023-04-15T18:32:12.819Z,79.06
2023-04-15T18:37:14.517Z,80.35
2023-04-15T18:42:16.125Z,81.23
2023-04-15T18:47:17.839Z,81.37
2023-04-15T18:52:19.668Z,81.59
2023-04-15T18:57:23.463Z,81.82
2023-04-15T19:02:32.951Z,82.13
2023-04-15T19:07:35.152Z,82.19
2023-04-15T19:12:37.045Z,82.75
2023-04-15T19:17:38.643Z,82.48
2023-04-15T19:22:40.369Z,82.64
2023-04-15T19:27:42.041Z,83.14
2023-04-15T19:32:43.635Z,83.19
2023-04-15T19:37:45.308Z,83.33
2023-04-15T19:42:46.969Z,83.82
2023-04-15T19:47:48.628Z,83.64
2023-04-15T19:52:50.525Z,84.41
2023-04-15T19:57:52.081Z,84.34
2023-04-15T20:02:55.935Z,85.35
2023-04-15T20:07:59.784Z,85.56
2023-04-15T20:13:01.443Z,86.71
2023-04-15T20:18:03.318Z,87.35
2023-04-15T20:23:04.977Z,87.59
2023-04-15T20:28:06.543Z,88.22
2023-04-15T20:33:08.367Z,88.29
2023-04-15T20:38:09.993Z,88.36
2023-04-15T20:43:12.720Z,88.89
2023-04-15T20:48:14.830Z,88.90
2023-04-15T20:53:16.561Z,88.57
2023-04-15T20:58:18.155Z,88.79
2023-04-15T21:03:19.921Z,89.08
2023-04-15T21:08:29.041Z,90.16
2023-04-15T21:13:31.004Z,90.71
2023-04-15T21:18:32.701Z,90.73
2023-04-15T21:23:35.966Z,90.96
2023-04-15T21:28:39.041Z,90.54
2023-04-15T21:33:40.750Z,90.62
2023-04-15T21:38:42.387Z,91.06
2023-04-15T21:43:43.980Z,90.75
2023-04-15T21:48:46.223Z,90.49
2023-04-15T21:53:48.373Z,91.01
2023-04-15T21:58:50.248Z,90.35
2023-04-15T22:03:52.896Z,90.65
2023-04-15T22:08:57.504Z,90.95
2023-04-15T22:14:14.874Z,91.01
2023-04-15T22:19:16.430Z,91.31
2023-04-15T22:24:31.665Z,91.13
2023-04-15T22:29:39.674Z,90.93
2023-04-15T22:34:41.507Z,90.81
2023-04-15T22:39:43.175Z,90.76
2023-04-15T22:44:44.704Z,90.85
2023-04-15T22:49:46.263Z,91.18
2023-04-15T22:54:47.849Z,90.97
2023-04-15T22:59:49.531Z,90.47
2023-04-15T23:04:51.315Z,90.72
2023-04-15T23:09:52.896Z,89.65
2023-04-15T23:14:54.485Z,89.69
2023-04-15T23:19:56.402Z,90.12
2023-04-15T23:24:57.952Z,90.17
2023-04-15T23:29:59.506Z,90.18
2023-04-15T23:35:01.065Z,89.74
2023-04-15T23:40:02.711Z,89.47
2023-04-15T23:45:04.547Z,89.21
2023-04-15T23:50:09.421Z,88.96
2023-04-15T23:55:11.040Z,88.43
